createdAt,value
2019-06-07T00:00:50.303Z,7.15
2019-06-07T00:03:28.966Z,5.80
2019-06-07T00:05:48.447Z,9.15
2019-06-07T00:08:24.741Z,6.97
2019-06-07T00:10:46.635Z,4.22
2019-06-07T00:13:17.094Z,6.03
2019-06-07T00:15:44.722Z,4.92
2019-06-07T00:18:14.980Z,5.37
2019-06-07T00:20:42.831Z,5.85
2019-06-07T00:23:12.177Z,4.65
2019-06-07T00:25:40.886Z,5.97
2019-06-07T00:28:10.557Z,5.55
2019-06-07T00:30:50.805Z,5.78
2019-06-07T00:33:10.909Z,6.90
2019-06-07T00:35:38.520Z,5.90
2019-06-07T00:38:06.735Z,4.62
2019-06-07T00:40:34.927Z,5.15
2019-06-07T00:43:03.144Z,4.47
2019-06-07T00:45:31.338Z,5.28
2019-06-07T00:47:59.558Z,4.37
2019-06-07T00:50:27.819Z,6.12
2019-06-07T00:53:14.853Z,4.78
2019-06-07T00:55:27.695Z,4.97
2019-06-07T00:57:55.748Z,4.90
2019-06-07T01:00:25.576Z,9.63
2019-06-07T01:02:53.791Z,4.40
2019-06-07T01:05:28.135Z,5.75
2019-06-07T01:07:51.861Z,5.62
2019-06-07T01:10:46.289Z,6.53
2019-06-07T01:12:49.911Z,7.25
2019-06-07T01:15:22.748Z,4.67
2019-06-07T01:18:33.124Z,5.40
2019-06-07T01:20:22.815Z,6.25
2019-06-07T01:22:49.316Z,5.85
2019-06-07T01:25:18.249Z,4.85
2019-06-07T01:27:47.381Z,6.58
2019-06-07T01:30:16.196Z,7.65
2019-06-07T01:32:44.464Z,6.70
2019-06-07T01:35:12.677Z,6.30
2019-06-07T01:37:40.872Z,6.50
2019-06-07T01:40:09.234Z,6.08
2019-06-07T01:42:37.381Z,9.65
2019-06-07T01:45:06.767Z,11.05
2019-06-07T01:47:34.967Z,8.85
2019-06-07T01:50:04.812Z,9.13
2019-06-07T01:52:33.006Z,11.18
2019-06-07T01:55:01.290Z,7.22
2019-06-07T01:57:44.775Z,7.62
2019-06-07T01:59:59.287Z,7.78
2019-06-07T02:02:29.982Z,8.60
2019-06-07T02:04:57.364Z,10.78
2019-06-07T02:07:29.545Z,10.45
2019-06-07T02:09:55.432Z,11.38
2019-06-07T02:12:31.705Z,8.70
2019-06-07T02:14:53.498Z,9.68
2019-06-07T02:17:25.224Z,7.10
2019-06-07T02:19:51.568Z,11.15
2019-06-07T02:22:21.416Z,7.60
2019-06-07T02:25:33.879Z,11.48
2019-06-07T02:27:20.731Z,7.17
2019-06-07T02:29:49.092Z,8.90
2019-06-07T02:32:17.311Z,8.80
2019-06-07T02:34:45.513Z,7.03
2019-06-07T02:37:13.723Z,8.80
2019-06-07T02:39:41.915Z,9.90
2019-06-07T02:42:10.141Z,7.95
2019-06-07T02:44:39.932Z,9.80
2019-06-07T02:47:08.203Z,7.67
2019-06-07T02:49:41.174Z,9.65
2019-06-07T02:52:06.272Z,10.25
2019-06-07T02:54:39.553Z,11.03
2019-06-07T02:57:04.335Z,9.70
2019-06-07T03:00:02.351Z,8.90
2019-06-07T03:02:02.448Z,13.20
2019-06-07T03:04:36.786Z,9.45
2019-06-07T03:07:00.489Z,9.20
2019-06-07T03:09:30.906Z,11.73
2019-06-07T03:11:58.571Z,9.98
2019-06-07T03:14:26.743Z,10.38
2019-06-07T03:17:05.815Z,11.30
2019-06-07T03:19:37.901Z,10.78
2019-06-07T03:22:05.494Z,17.00
2019-06-07T03:24:36.243Z,12.05
2019-06-07T03:29:36.601Z,10.10
2019-06-07T03:32:05.051Z,10.00
2019-06-07T03:34:39.255Z,11.57
2019-06-07T03:37:03.111Z,9.98
2019-06-07T03:39:31.483Z,11.65
2019-06-07T03:42:06.154Z,8.40
2019-06-07T03:44:33.973Z,9.03
2019-06-07T03:46:59.824Z,9.30
2019-06-07T03:49:30.669Z,9.83
2019-06-07T03:51:57.906Z,9.35
2019-06-07T03:54:27.173Z,10.70
2019-06-07T03:56:55.615Z,15.32
2019-06-07T03:59:23.836Z,11.03
2019-06-07T04:01:52.026Z,9.88
2019-06-07T04:04:20.247Z,9.28
2019-06-07T04:06:48.439Z,9.93
2019-06-07T04:09:16.663Z,11.03
2019-06-07T04:11:44.859Z,11.85
2019-06-07T04:14:13.080Z,9.85
2019-06-07T04:16:44.619Z,7.97
2019-06-07T04:19:11.145Z,8.08
2019-06-07T04:21:42.485Z,8.83
2019-06-07T04:24:09.214Z,6.62
2019-06-07T04:26:42.513Z,7.35
2019-06-07T04:29:32.271Z,5.78
2019-06-07T04:31:41.958Z,7.17
2019-06-07T04:34:06.987Z,6.95
2019-06-07T04:36:45.670Z,9.28
2019-06-07T04:39:06.358Z,6.25
2019-06-07T04:41:36.836Z,13.38
2019-06-07T04:44:04.416Z,8.75
2019-06-07T04:46:35.220Z,7.87
2019-06-07T04:49:03.474Z,6.12
2019-06-07T04:51:32.377Z,11.45
2019-06-07T04:54:01.743Z,8.10
2019-06-07T04:56:30.721Z,7.35
2019-06-07T04:58:59.806Z,7.40
2019-06-07T05:01:30.718Z,8.55
2019-06-07T05:03:57.871Z,7.37
2019-06-07T05:06:26.117Z,7.37
2019-06-07T05:08:54.303Z,8.90
2019-06-07T05:11:22.524Z,6.42
2019-06-07T05:13:50.782Z,8.10
2019-06-07T05:16:18.948Z,6.70
2019-06-07T05:18:47.145Z,11.25
2019-06-07T05:21:15.364Z,9.88
2019-06-07T05:24:05.914Z,8.23
2019-06-07T05:26:13.428Z,9.38
2019-06-07T05:28:43.020Z,10.32
2019-06-07T05:31:11.443Z,15.78
2019-06-07T05:33:41.230Z,8.90
2019-06-07T05:36:09.511Z,9.38
2019-06-07T05:38:41.162Z,10.38
2019-06-07T05:41:07.579Z,9.50
2019-06-07T05:43:39.299Z,10.38
2019-06-07T05:46:05.654Z,12.10
2019-06-07T05:48:34.215Z,12.25
2019-06-07T05:51:02.515Z,12.00
2019-06-07T05:53:31.691Z,12.50
2019-06-07T05:56:00.582Z,11.12
2019-06-07T05:58:28.832Z,12.95
2019-06-07T06:01:40.904Z,12.75
2019-06-07T06:03:27.117Z,14.47
2019-06-07T06:05:55.802Z,14.30
2019-06-07T06:08:24.385Z,9.98
2019-06-07T06:10:52.575Z,12.73
2019-06-07T06:13:20.804Z,9.65
2019-06-07T06:16:00.604Z,10.55
2019-06-07T06:18:18.879Z,11.03
2019-06-07T06:21:11.809Z,11.70
2019-06-07T06:23:16.963Z,11.22
2019-06-07T06:25:53.271Z,12.58
2019-06-07T06:28:16.032Z,12.37
2019-06-07T06:30:47.948Z,12.10
2019-06-07T06:33:30.601Z,10.18
2019-06-07T06:35:48.888Z,12.28
2019-06-07T06:38:15.275Z,10.25
2019-06-07T06:40:47.068Z,8.58
2019-06-07T06:43:13.438Z,8.18
2019-06-07T06:45:42.869Z,11.15
2019-06-07T06:48:11.503Z,9.18
2019-06-07T06:50:41.097Z,14.47
2019-06-07T06:53:09.427Z,10.63
2019-06-07T06:55:38.998Z,9.93
2019-06-07T06:58:07.340Z,8.45
2019-06-07T07:00:50.259Z,9.05
2019-06-07T07:05:44.061Z,8.68
2019-06-07T07:08:13.112Z,10.08
2019-06-07T07:10:43.249Z,6.37
2019-06-07T07:13:11.521Z,9.58
2019-06-07T07:15:39.748Z,7.30
2019-06-07T07:18:08.990Z,8.23
2019-06-07T07:20:37.359Z,9.33
2019-06-07T07:23:05.626Z,5.67
2019-06-07T07:25:33.847Z,7.12
2019-06-07T07:28:02.080Z,4.83
2019-06-07T07:30:44.809Z,8.38
2019-06-07T07:33:13.183Z,5.30
2019-06-07T07:36:04.743Z,10.70
2019-06-07T07:38:11.269Z,6.92
2019-06-07T07:43:09.460Z,6.83
2019-06-07T07:45:37.652Z,5.80
2019-06-07T07:48:15.572Z,5.83
2019-06-07T07:50:35.739Z,5.17
2019-06-07T07:53:04.251Z,8.83
2019-06-07T07:55:32.611Z,5.92
2019-06-07T07:58:01.959Z,8.73
2019-06-07T08:00:52.199Z,4.65
2019-06-07T08:03:04.357Z,5.15
2019-06-07T08:05:42.399Z,6.42
2019-06-07T08:08:01.451Z,5.65
2019-06-07T08:10:29.798Z,8.68
2019-06-07T08:13:22.141Z,6.22
2019-06-07T08:15:27.940Z,5.37
2019-06-07T08:18:01.142Z,7.25
2019-06-07T08:20:26.048Z,8.55
2019-06-07T08:22:57.769Z,7.75
2019-06-07T08:25:24.095Z,8.23
2019-06-07T08:27:55.598Z,9.15
2019-06-07T08:32:57.575Z,8.63
2019-06-07T08:36:03.260Z,5.80
2019-06-07T08:40:21.608Z,6.50
2019-06-07T08:43:10.291Z,13.15
2019-06-07T08:45:19.671Z,5.35
2019-06-07T08:47:47.867Z,6.70
2019-06-07T08:50:16.090Z,10.45
2019-06-07T08:52:44.279Z,6.72
2019-06-07T08:55:12.500Z,5.65
2019-06-07T08:57:40.699Z,7.55
2019-06-07T09:00:42.510Z,7.10
2019-06-07T09:02:39.155Z,7.30
2019-06-07T09:05:12.199Z,5.08
2019-06-07T09:07:38.691Z,5.95
2019-06-07T09:10:13.432Z,7.72
2019-06-07T09:12:37.403Z,4.87
2019-06-07T09:15:20.992Z,8.38
2019-06-07T09:17:35.668Z,4.92
2019-06-07T09:20:09.460Z,6.17
2019-06-07T09:22:34.930Z,6.00
2019-06-07T09:25:12.241Z,5.37
2019-06-07T09:27:33.764Z,5.45
2019-06-07T09:30:07.678Z,7.03
2019-06-07T09:32:31.872Z,6.35
2019-06-07T09:35:05.403Z,6.83
2019-06-07T09:40:10.316Z,3.72
2019-06-07T09:42:29.635Z,4.85
2019-06-07T09:45:02.070Z,4.33
2019-06-07T09:47:32.434Z,7.72
2019-06-07T09:50:02.358Z,6.72
2019-06-07T09:52:27.453Z,4.65
2019-06-07T09:55:09.362Z,6.83
2019-06-07T09:57:25.540Z,8.30
2019-06-07T09:59:53.732Z,6.50
2019-06-07T10:02:21.964Z,4.92
2019-06-07T10:04:50.156Z,7.40
2019-06-07T10:07:31.346Z,5.55
2019-06-07T10:12:18.228Z,6.80
2019-06-07T10:14:46.424Z,4.40
2019-06-07T10:17:14.654Z,7.17
2019-06-07T10:19:42.840Z,5.72
2019-06-07T10:22:11.062Z,7.45
2019-06-07T10:24:39.250Z,4.05
2019-06-07T10:27:07.961Z,5.03
2019-06-07T10:29:36.166Z,4.67
2019-06-07T10:32:04.551Z,4.30
2019-06-07T10:34:32.778Z,5.65
2019-06-07T10:37:03.315Z,4.55
2019-06-07T10:39:30.871Z,6.05
2019-06-07T10:41:59.107Z,4.00
2019-06-07T10:44:27.283Z,4.05
2019-06-07T10:46:59.077Z,10.53
2019-06-07T10:49:25.380Z,7.72
2019-06-07T10:51:53.555Z,5.92
2019-06-07T10:54:29.509Z,6.10
2019-06-07T10:56:51.616Z,5.45
2019-06-07T10:59:19.848Z,4.17
2019-06-07T11:01:48.039Z,4.53
2019-06-07T11:04:16.247Z,6.08
2019-06-07T11:06:44.443Z,6.30
2019-06-07T11:09:14.125Z,5.87
2019-06-07T11:11:42.511Z,5.65
2019-06-07T11:14:10.796Z,3.85
2019-06-07T11:16:39.023Z,4.55
2019-06-07T11:19:08.063Z,5.12
2019-06-07T11:21:36.332Z,4.22
2019-06-07T11:24:04.539Z,5.10
2019-06-07T11:26:32.784Z,5.70
2019-06-07T11:29:00.987Z,5.15
2019-06-07T11:31:29.250Z,6.08
2019-06-07T11:33:57.449Z,8.13
2019-06-07T11:36:25.650Z,4.42
2019-06-07T11:38:53.940Z,6.97
2019-06-07T11:41:22.203Z,10.43
2019-06-07T11:43:50.478Z,6.03
2019-06-07T11:46:18.775Z,9.10
2019-06-07T11:48:47.015Z,11.33
2019-06-07T11:51:15.216Z,14.98
2019-06-07T11:53:43.428Z,4.05
2019-06-07T11:56:11.920Z,6.15
2019-06-07T11:58:40.243Z,5.58
2019-06-07T12:01:09.598Z,6.25
2019-06-07T12:03:37.951Z,5.00
2019-06-07T12:06:06.147Z,4.40
2019-06-07T12:08:34.383Z,3.72
2019-06-07T12:11:02.588Z,4.12
2019-06-07T12:13:30.877Z,3.60
2019-06-07T12:15:59.080Z,6.00
2019-06-07T12:18:27.306Z,4.20
2019-06-07T12:20:55.498Z,4.95
2019-06-07T12:23:23.715Z,4.53
2019-06-07T12:25:51.954Z,5.87
2019-06-07T12:28:21.007Z,4.33
2019-06-07T12:30:49.446Z,3.45
2019-06-07T12:33:17.861Z,12.78
2019-06-07T12:35:46.066Z,5.40
2019-06-07T12:38:14.658Z,6.15
2019-06-07T12:40:56.763Z,5.05
2019-06-07T12:43:14.556Z,5.28
2019-06-07T12:45:45.742Z,4.33
2019-06-07T12:48:18.551Z,4.67
2019-06-07T12:50:44.136Z,5.20
2019-06-07T12:53:13.623Z,4.05
2019-06-07T12:55:41.931Z,3.45
2019-06-07T12:58:10.153Z,4.55
2019-06-07T13:00:38.371Z,7.60
2019-06-07T13:03:06.584Z,4.85
2019-06-07T13:05:34.857Z,4.72
2019-06-07T13:08:03.041Z,6.45
2019-06-07T13:10:31.269Z,3.90
2019-06-07T13:12:59.474Z,5.70
2019-06-07T13:15:28.332Z,4.47
2019-06-07T13:17:56.595Z,5.53
2019-06-07T13:20:24.860Z,6.75
2019-06-07T13:22:53.057Z,8.78
2019-06-07T13:25:23.413Z,4.20
2019-06-07T13:27:51.194Z,4.20
2019-06-07T13:30:20.782Z,3.85
2019-06-07T13:32:49.415Z,4.75
2019-06-07T13:35:18.903Z,8.98
2019-06-07T13:37:47.525Z,8.00
2019-06-07T13:40:16.393Z,5.70
2019-06-07T13:42:44.725Z,5.40
2019-06-07T13:45:12.964Z,6.72
2019-06-07T13:47:41.184Z,4.10
2019-06-07T13:50:09.380Z,5.00
2019-06-07T13:52:37.855Z,3.80
2019-06-07T13:55:06.086Z,4.65
2019-06-07T13:57:34.371Z,5.25
2019-06-07T14:00:10.488Z,5.78
2019-06-07T14:02:32.483Z,9.93
2019-06-07T14:05:00.706Z,5.20
2019-06-07T14:07:30.093Z,4.67
2019-06-07T14:09:58.430Z,4.45
2019-06-07T14:12:27.742Z,3.80
2019-06-07T14:14:56.059Z,4.05
2019-06-07T14:17:25.294Z,7.60
2019-06-07T14:19:53.696Z,3.80
2019-06-07T14:22:22.718Z,4.03
2019-06-07T14:24:51.091Z,6.75
2019-06-07T14:27:19.303Z,3.83
2019-06-07T14:29:47.526Z,4.45
2019-06-07T14:32:16.642Z,3.98
2019-06-07T14:34:44.851Z,7.67
2019-06-07T14:37:13.106Z,5.53
2019-06-07T14:39:41.310Z,4.67
2019-06-07T14:42:10.385Z,13.30
2019-06-07T14:44:38.903Z,3.83
2019-06-07T14:47:07.181Z,7.33
2019-06-07T14:49:35.395Z,4.75
2019-06-07T14:52:04.031Z,8.13
2019-06-07T14:54:36.137Z,5.67
2019-06-07T14:57:03.426Z,3.90
2019-06-07T14:59:32.738Z,6.78
2019-06-07T15:02:01.178Z,4.70
2019-06-07T15:04:30.587Z,5.75
2019-06-07T15:06:59.019Z,3.12
2019-06-07T15:09:28.863Z,5.70
2019-06-07T15:11:57.316Z,3.47
2019-06-07T15:14:25.580Z,5.53
2019-06-07T15:16:53.833Z,4.83
2019-06-07T15:19:24.147Z,5.15
2019-06-07T15:21:52.104Z,7.67
2019-06-07T15:24:20.367Z,9.08
2019-06-07T15:26:48.554Z,5.00
2019-06-07T15:29:16.754Z,6.28
2019-06-07T15:31:45.008Z,5.47
2019-06-07T15:34:13.282Z,4.28
2019-06-07T15:36:41.581Z,5.12
2019-06-07T15:39:09.902Z,3.90
2019-06-07T15:41:39.736Z,6.50
2019-06-07T15:44:08.244Z,3.67
2019-06-07T15:46:37.783Z,3.55
2019-06-07T15:49:06.236Z,6.12
2019-06-07T15:51:34.532Z,5.33
2019-06-07T15:54:02.873Z,5.95
2019-06-07T15:56:31.065Z,4.45
2019-06-07T15:58:59.263Z,4.92
2019-06-07T16:01:27.661Z,6.90
2019-06-07T16:03:55.923Z,4.17
2019-06-07T16:06:24.123Z,5.60
2019-06-07T16:08:52.344Z,6.47
2019-06-07T16:11:20.543Z,7.28
2019-06-07T16:13:48.779Z,5.28
2019-06-07T16:16:17.370Z,6.45
2019-06-07T16:18:45.721Z,5.80
2019-06-07T16:21:17.758Z,5.70
2019-06-07T16:23:45.336Z,5.33
2019-06-07T16:26:13.763Z,7.03
2019-06-07T16:28:42.525Z,4.25
2019-06-07T16:31:10.775Z,5.50
2019-06-07T16:33:38.973Z,4.28
2019-06-07T16:36:07.996Z,6.42
2019-06-07T16:38:36.320Z,6.17
2019-06-07T16:41:04.990Z,6.40
2019-06-07T16:43:36.557Z,5.83
2019-06-07T16:46:04.992Z,5.55
2019-06-07T16:48:33.183Z,5.40
2019-06-07T16:51:01.400Z,6.03
2019-06-07T16:53:29.870Z,7.22
2019-06-07T16:55:58.923Z,6.47
2019-06-07T16:58:27.151Z,5.00
2019-06-07T17:00:55.421Z,5.78
2019-06-07T17:03:23.690Z,3.87
2019-06-07T17:05:51.884Z,5.55
2019-06-07T17:08:20.104Z,6.00
2019-06-07T17:10:49.103Z,5.65
2019-06-07T17:13:32.549Z,8.68
2019-06-07T17:15:47.365Z,6.78
2019-06-07T17:18:15.681Z,4.95
2019-06-07T17:20:45.207Z,4.28
2019-06-07T17:23:13.549Z,5.30
2019-06-07T17:25:41.843Z,6.78
2019-06-07T17:28:10.461Z,4.12
2019-06-07T17:30:39.766Z,5.50
2019-06-07T17:33:08.121Z,6.53
2019-06-07T17:35:36.312Z,5.20
2019-06-07T17:38:04.603Z,6.05
2019-06-07T17:40:32.796Z,4.55
2019-06-07T17:43:01.016Z,5.95
2019-06-07T17:45:29.211Z,6.05
2019-06-07T17:47:57.444Z,5.53
2019-06-07T17:50:25.663Z,5.25
2019-06-07T17:52:53.874Z,10.85
2019-06-07T17:55:22.121Z,6.37
2019-06-07T17:57:50.931Z,4.53
2019-06-07T18:00:34.565Z,7.08
2019-06-07T18:02:49.206Z,8.23
2019-06-07T18:05:17.427Z,4.40
2019-06-07T18:07:47.624Z,6.25
2019-06-07T18:10:17.622Z,6.10
2019-06-07T18:12:46.064Z,6.35
2019-06-07T18:15:14.451Z,4.50
2019-06-07T18:17:42.644Z,7.30
2019-06-07T18:20:11.006Z,7.03
2019-06-07T18:22:39.171Z,5.95
2019-06-07T18:25:07.458Z,5.28
2019-06-07T18:27:35.648Z,5.58
2019-06-07T18:30:11.369Z,5.55
2019-06-07T18:32:35.687Z,4.87
2019-06-07T18:35:04.382Z,6.08
2019-06-07T18:37:32.573Z,7.72
2019-06-07T18:40:00.898Z,5.42
2019-06-07T18:42:29.091Z,7.65
2019-06-07T18:44:57.308Z,7.15
2019-06-07T18:47:25.499Z,5.72
2019-06-07T18:49:53.696Z,6.42
2019-06-07T18:52:23.550Z,6.20
2019-06-07T18:54:52.988Z,5.53
2019-06-07T18:57:21.375Z,9.05
2019-06-07T18:59:50.174Z,5.58
2019-06-07T19:02:18.427Z,7.60
2019-06-07T19:04:47.905Z,7.92
2019-06-07T19:07:16.219Z,6.22
2019-06-07T19:09:44.415Z,6.80
2019-06-07T19:12:12.758Z,7.28
2019-06-07T19:14:40.960Z,7.12
2019-06-07T19:17:09.196Z,5.90
2019-06-07T19:19:37.393Z,7.00
2019-06-07T19:22:05.627Z,6.17
2019-06-07T19:24:33.828Z,13.35
2019-06-07T19:27:02.047Z,9.40
2019-06-07T19:29:30.260Z,6.65
2019-06-07T19:31:59.080Z,10.95
2019-06-07T19:34:27.370Z,7.85
2019-06-07T19:36:55.718Z,11.45
2019-06-07T19:39:23.992Z,9.00
2019-06-07T19:41:52.186Z,6.50
2019-06-07T19:44:20.404Z,8.58
2019-06-07T19:46:48.676Z,8.75
2019-06-07T19:49:16.898Z,13.78
2019-06-07T19:51:45.105Z,8.53
2019-06-07T19:54:13.328Z,13.85
2019-06-07T19:56:41.529Z,12.28
2019-06-07T19:59:09.757Z,8.33
2019-06-07T20:01:37.952Z,8.60
2019-06-07T20:04:06.177Z,11.90
2019-06-07T20:06:34.384Z,9.13
2019-06-07T20:09:02.952Z,10.20
2019-06-07T20:11:31.277Z,15.93
2019-06-07T20:14:00.516Z,7.25
2019-06-07T20:16:29.108Z,8.88
2019-06-07T20:18:58.147Z,9.38
2019-06-07T20:21:26.436Z,8.63
2019-06-07T20:23:54.704Z,8.43
2019-06-07T20:26:22.925Z,9.55
2019-06-07T20:28:51.167Z,13.15
2019-06-07T20:31:19.394Z,17.98
2019-06-07T20:33:47.611Z,12.15
2019-06-07T20:36:15.851Z,7.95
2019-06-07T20:38:44.015Z,9.55
2019-06-07T20:41:12.239Z,10.95
2019-06-07T20:43:40.441Z,10.78
2019-06-07T20:46:08.660Z,8.28
2019-06-07T20:48:36.870Z,8.88
2019-06-07T20:51:06.402Z,7.60
2019-06-07T20:53:34.679Z,6.03
2019-06-07T20:56:02.905Z,9.40
2019-06-07T20:58:31.103Z,7.62
2019-06-07T21:01:00.545Z,6.65
2019-06-07T21:03:28.819Z,7.70
2019-06-07T21:05:57.044Z,4.65
2019-06-07T21:08:25.226Z,13.78
2019-06-07T21:10:53.461Z,18.62
2019-06-07T21:13:21.760Z,11.97
2019-06-07T21:15:49.952Z,10.35
2019-06-07T21:18:19.994Z,8.45
2019-06-07T21:20:48.019Z,14.03
2019-06-07T21:23:16.244Z,16.10
2019-06-07T21:25:44.476Z,14.83
2019-06-07T21:28:12.662Z,8.48
2019-06-07T21:30:40.873Z,6.60
2019-06-07T21:33:09.727Z,7.80
2019-06-07T21:35:37.984Z,6.58
2019-06-07T21:38:06.281Z,7.22
2019-06-07T21:40:34.481Z,6.58
2019-06-07T21:43:04.141Z,9.93
2019-06-07T21:45:32.492Z,10.40
2019-06-07T21:48:03.149Z,5.92
2019-06-07T21:50:30.555Z,4.78
2019-06-07T21:52:58.772Z,3.60
2019-06-07T21:55:26.964Z,7.25
2019-06-07T21:57:55.254Z,7.72
2019-06-07T22:00:26.443Z,7.25
2019-06-07T22:02:54.828Z,5.33
2019-06-07T22:05:23.042Z,4.70
2019-06-07T22:07:51.234Z,5.90
2019-06-07T22:10:19.455Z,5.35
2019-06-07T22:12:47.679Z,6.05
2019-06-07T22:15:32.084Z,1.65
2019-06-07T22:17:45.835Z,3.00
2019-06-07T22:20:14.746Z,7.55
2019-06-07T22:22:42.992Z,2.55
2019-06-07T22:25:11.211Z,7.35
2019-06-07T22:27:39.412Z,3.95
2019-06-07T22:30:08.445Z,3.95
2019-06-07T22:32:36.931Z,7.12
2019-06-07T22:35:06.727Z,8.10
2019-06-07T22:37:35.123Z,1.45
2019-06-07T22:40:06.156Z,1.87
2019-06-07T22:42:34.409Z,2.77
2019-06-07T22:45:02.623Z,2.87
2019-06-07T22:47:30.817Z,1.85
2019-06-07T22:49:59.044Z,4.37
2019-06-07T22:52:27.236Z,8.10
2019-06-07T22:54:55.456Z,1.15
2019-06-07T22:57:25.287Z,4.83
2019-06-07T22:59:53.507Z,5.25
2019-06-07T23:02:21.695Z,2.90
2019-06-07T23:04:49.918Z,5.30
2019-06-07T23:07:19.191Z,3.87
2019-06-07T23:09:47.552Z,5.62
2019-06-07T23:12:15.770Z,2.50
2019-06-07T23:14:43.968Z,5.10
2019-06-07T23:17:13.741Z,3.60
2019-06-07T23:19:42.079Z,5.25
2019-06-07T23:22:10.317Z,1.22
2019-06-07T23:24:38.483Z,3.10
2019-06-07T23:27:06.711Z,4.42
2019-06-07T23:29:34.916Z,5.70
2019-06-07T23:32:03.135Z,4.28
2019-06-07T23:34:31.319Z,2.17
2019-06-07T23:36:59.537Z,1.42
2019-06-07T23:39:27.735Z,6.35
2019-06-07T23:41:55.947Z,4.75
2019-06-07T23:44:24.140Z,1.60
2019-06-07T23:46:52.364Z,1.42
2019-06-07T23:49:22.378Z,1.27
2019-06-07T23:51:50.414Z,1.87
2019-06-07T23:54:19.816Z,2.62
2019-06-07T23:56:48.223Z,1.92
2019-06-07T23:59:16.425Z,5.42
